San Antonio, Valles Caldera, New Mexico Weather observations

Data are for 10 minute period ending at time listed.
 Day   Time   Solar   Ave.   Ave.  Ave.  Vector  Max.   Baro.   Total    
  of    of     Rad.   Air    Rel.  Wind   Wind   Wind  Press.  Precip.   
Year   Day            Temp.  Hum.  Speed  Dir.   Gust                    
2014   (MST)  Kw/m2    F      %     mph   deg.    mph    mb.     in.     
-------------------------------------------------------------------------
 303   17:20   0.00   53.5    20    3.3   355     6.6   395.9    0.00 
 303   17:30   0.00   51.0    22    4.0    17     6.6   395.5    0.00 
 303   17:40   0.00   49.5    24    3.9    28     6.0   395.5    0.00 
 303   17:50   0.00   48.2    25    4.2    27     6.0   395.2    0.00 
 303   18:00   0.00   47.2    26    4.0    32     6.0   395.2    0.00 
 303   18:10   0.00   45.7    28    2.1    12     4.2   395.2    0.00 
 303   18:20   0.00   44.3    28    3.6    47     4.8   395.2    0.00 
 303   18:30   0.00   41.8    32    2.6    50     5.4   394.9    0.00 
 303   18:40   0.00   40.4    34    3.1   345     4.8   394.9    0.00 
 303   18:50   0.00   40.5    34    1.3   346     3.0   394.9    0.00 
 303   19:00   0.00   39.1    34    1.8   346     3.0   394.5    0.00 
 303   19:10   0.00   38.5    36    0.9    46     2.4   394.5    0.00 
 303   19:20   0.00   38.0    37    2.7   341     4.8   394.5    0.00 
 303   19:30   0.00   38.5    35    1.5    25     3.6   394.5    0.00 
 303   19:40   0.00   36.9    38    1.1   312     3.0   394.5    0.00 
 303   19:50   0.00   34.7    43    1.9   314     4.2   394.5    0.00 
 303   20:00   0.00   32.5    48    1.2    47     3.6   394.5    0.00 
 303   20:10   0.00   32.0    49    2.0   110     4.2   394.5    0.00 
 303   20:20   0.00   32.9    47    0.6   138     2.4   394.5    0.00 
 303   20:30   0.00   32.0    50    0.6   326     2.4   394.5    0.00 
 303   20:40   0.00   31.5    51    0.7     9     2.4   394.5    0.00 
 303   20:50   0.00   30.7    53    0.8   314     3.0   394.5    0.00 
 303   21:00   0.00   29.6    56    0.9   298     2.4   394.5    0.00 
 303   21:10   0.00   29.2    58    0.9    65     4.2   394.5    0.00 
 303   21:20   0.00   28.9    59    1.4   348     5.4   394.5    0.00 
 303   21:30   0.00   28.4    61    0.8   358     3.0   394.5    0.00 
 303   21:40   0.00   28.6    60    1.4   300     3.0   394.5    0.00 
 303   21:50   0.00   28.4    61    2.9   353     7.2   394.5    0.00 
 303   22:00   0.00   27.4    62    1.7     1     3.6   394.5    0.00 
 303   22:10   0.00   27.6    63    0.9   293     3.0   394.5    0.00 
 303   22:20   0.00   28.0    62    1.7   288     4.2   394.5    0.00 
 303   22:30   0.00   27.6    63    1.8   312     3.6   394.5    0.00 
 303   22:40   0.00   27.4    64    1.3   284     3.0   394.5    0.00 
 303   22:50   0.00   27.8    64    1.6   311     3.6   394.5    0.00 
 303   23:00   0.00   29.2    62    1.9   303     3.6   394.5    0.00 
 303   23:10   0.00   31.2    60    2.5   118     8.4   394.9    0.00 
 303   23:20   0.00   37.1    49    5.2   120    11.9   394.5    0.00 
 303   23:30   0.00   42.8    40    8.5   102    12.5   394.9    0.00 
 303   23:40   0.00   42.8    40    7.6   105    11.3   394.9    0.00 
 303   23:50   0.00   42.6    40    8.7   102    12.5   394.9    0.00 
 304    0:00   0.00   42.5    40    9.3   105    13.1   394.9    0.00 
 304    0:10   0.00   42.1    40    9.0   104    13.1   394.9    0.00 
 304    0:20   0.00   41.7    41    9.0   108    13.1   394.9    0.00 
 304    0:30   0.00   41.4    41    9.7   101    14.3   394.9    0.00 
 304    0:40   0.00   41.6    41    9.5   101    16.1   394.9    0.00 
 304    0:50   0.00   41.5    41   10.8   107    15.5   394.9    0.00 
 304    1:00   0.00   41.5    41   10.2   103    17.3   394.9    0.00 
 304    1:10   0.00   41.3    41   10.1   102    16.7   394.9    0.00 
 304    1:20   0.00   41.0    42   10.5    98    16.1   394.9    0.00 
 304    1:30   0.00   40.7    42    9.5    97    17.9   394.9    0.00 
 304    1:40   0.00   40.4    43    9.9   102    14.9   394.9    0.00 
 304    1:50   0.00   40.2    44   10.2   102    14.9   394.9    0.00 
 304    2:00   0.00   40.1    44   10.9   102    19.1   394.9    0.00 
 304    2:10   0.00   40.0    45   10.8   110    16.7   394.9    0.00 
 304    2:20   0.00   39.6    46   10.8   114    17.9   394.9    0.00 
 304    2:30   0.00   39.4    46   10.7   106    17.9   394.9    0.00 
 304    2:40   0.00   39.5    46   10.8   110    17.9   394.9    0.00 
 304    2:50   0.00   39.5    47   10.1   106    18.5   394.9    0.00 
 304    3:00   0.00   39.3    47    9.9   103    14.9   394.9    0.00 
 304    3:10   0.00   38.9    48    9.6   112    14.3   394.9    0.00 
 304    3:20   0.00   38.9    48   10.1   111    17.3   394.9    0.00 
 304    3:30   0.00   38.7    49    9.9   111    15.5   394.9    0.00 
 304    3:40   0.00   38.6    49   10.3   107    14.9   394.9    0.00 
 304    3:50   0.00   38.4    50   10.6   118    18.5   394.9    0.00 
 304    4:00   0.00   38.1    50   10.9   118    16.7   394.9    0.00 
 304    4:10   0.00   38.1    50   10.2   112    17.9   394.9    0.00 
 304    4:20   0.00   38.1    51   10.6   112    17.3   394.9    0.00 
 304    4:30   0.00   37.0    52   10.0   117    14.3   394.9    0.00 
 304    4:40   0.00   36.9    53   10.2   112    14.9   394.9    0.00 
 304    4:50   0.00   37.0    53   10.4   114    16.1   394.9    0.00 
 304    5:00   0.00   36.5    53    9.6   116    14.3   394.9    0.00 
 304    5:10   0.00   36.1    55    9.4   112    14.9   394.9    0.00 
 304    5:20   0.00   36.5    54   10.2   108    16.1   394.9    0.00 
 304    5:30   0.00   36.0    54    9.1   116    16.1   394.9    0.00 
 304    5:40   0.00   36.3    54   10.1   108    16.1   394.9    0.00 
 304    5:50   0.00   36.3    54    9.4   116    17.3   394.9    0.00 
 304    6:00   0.00   32.5    61    9.3   130    13.7   394.9    0.00 
 304    6:10   0.00   33.7    60    9.3   119    15.5   394.9    0.00 
 304    6:20   0.00   35.2    57    9.8   112    14.9   394.9    0.00 
 304    6:30   0.01   36.0    55    7.7   111    14.3   394.9    0.00 
 304    6:40   0.01   35.4    56    8.3   116    13.7   394.9    0.00 
 304    6:50   0.02   34.3    58    6.0   124     9.0   394.9    0.00 
 304    7:00   0.04   33.2    60    8.4   133    13.1   394.9    0.00 
 304    7:10   0.05   33.1    61    7.5   134    11.9   394.9    0.00 
 304    7:20   0.06   34.0    60    7.9   124    11.9   394.9    0.00 
 304    7:30   0.12   36.7    55    8.9   115    13.7   395.2    0.00 
 304    7:40   0.10   36.7    54   11.0   112    16.7   394.9    0.00 
 304    7:50   0.16   36.8    54   10.6   109    16.1   395.2    0.00 
 304    8:00   0.17   37.6    53    9.3   111    13.1   395.2    0.00 
 304    8:10   0.24   38.9    52   10.6   120    15.5   395.2    0.00 
 304    8:20   0.27   40.1    51   11.2   125    15.5   395.2    0.00 
 304    8:30   0.27   40.7    50   11.2   134    15.5   395.2    0.00 
 304    8:40   0.21   40.9    50   10.6   137    16.1   395.5    0.00 
 304    8:50   0.34   41.5    49   11.7   132    16.1   395.2    0.00 
 304    9:00   0.30   42.9    47   10.5   134    16.1   395.5    0.00 
 304    9:10   0.19   42.0    49    9.9   136    14.9   395.2    0.00 
 304    9:20   0.17   41.8    50    9.4   128    13.1   395.2    0.00 
 304    9:30   0.42   43.7    47    9.8   134    13.7   395.5    0.00 
 304    9:40   0.51   46.9    42    9.0   146    13.1   395.9    0.00 
 304    9:50   0.36   46.2    43    9.7   128    16.1   395.9    0.00 
 304   10:00   0.43   46.4    43   10.0   128    16.1   395.9    0.00 
 304   10:10   0.59   47.6    42   11.4   117    17.3   396.2    0.00 
 304   10:20   0.60   48.7    41   11.2   120    16.1   396.2    0.00 
 304   10:30   0.61   49.8    39   10.2   121    14.9   396.2    0.00 
 304   10:40   0.62   50.5    38    8.1   103    14.9   396.2    0.00 
 304   10:50   0.64   52.4    36    6.7   117    11.9   396.2    0.00 
 304   11:00   0.64   52.9    35    7.8   106    13.7   396.2    0.00 
 304   11:10   0.66   53.7    34    6.8   122    16.1   396.5    0.00 
 304   11:20   0.67   55.1    32    6.6   111    14.3   396.5    0.00 
 304   11:30   0.69   55.8    32    6.5   130    11.9   396.5    0.00 
 304   11:40   0.70   56.9    31    8.7   197    19.1   396.9    0.00 
 304   11:50   0.70   56.6    31    8.7   232    14.3   396.9    0.00 
 304   12:00   0.76   57.4    30    8.4   219    14.9   396.9    0.00 
 304   12:10   0.63   57.4    30    7.1   200    13.7   396.9    0.00 
 304   12:20   0.85   57.1    30    8.5   195    17.9   397.2    0.00 
 304   12:30   0.58   56.8    31    6.8   185    11.9   396.9    0.00 
 304   12:40   0.68   56.5    32    6.9   214    11.9   396.9    0.00 
 304   12:50   0.71   56.9    31    7.8   220    13.7   397.2    0.00 
 304   13:00   0.72   57.5    31    8.2   221    13.1   397.2    0.00 
 304   13:10   0.56   57.3    31    7.8   238    13.1   396.9    0.00 
 304   13:20   0.38   56.4    31    7.9   234    11.9   396.9    0.00 
 304   13:30   0.60   55.9    32    6.5   219    14.9   396.9    0.00 
 304   13:40   0.60   57.7    31    7.8   236    14.9   397.2    0.00 
 304   13:50   0.58   57.6    31    8.5   239    14.9   396.9    0.00 
 304   14:00   0.56   57.7    31    8.8   241    14.3   396.9    0.00 
 304   14:10   0.54   57.5    32    7.5   240    15.5   397.2    0.00 
 304   14:20   0.49   57.2    32    8.3   233    14.9   396.9    0.00 
 304   14:30   0.48   56.6    33    8.0   233    13.7   396.9    0.00 
 304   14:40   0.45   56.4    33    7.7   237    13.7   396.9    0.00 
 304   14:50   0.48   56.6    33    8.7   242    14.3   396.9    0.00 
 304   15:00   0.47   57.3    33    8.7   244    14.3   396.9    0.00 
 304   15:10   0.39   57.0    33    6.9   256    11.9   396.9    0.00 
 304   15:20   0.34   57.1    33    8.4   255    13.7   396.9    0.00 
 304   15:30   0.30   56.0    35    7.3   244    11.3   396.5    0.00 
 304   15:40   0.27   56.4    34    7.2   251    12.5   396.5    0.00 
 304   15:50   0.24   55.8    35    7.0   233    11.9   396.5    0.00 
 304   16:00   0.21   56.0    34    4.9   230    10.2   396.5    0.00 
 304   16:10   0.18   56.0    35    4.0   206     9.6   396.5    0.00 
 304   16:20   0.15   54.8    37    6.5   158    11.3   396.5    0.00 
 304   16:30   0.12   53.2    39    8.6   140    12.5   396.2    0.00 
 304   16:40   0.08   51.3    40    7.5   126    12.5   396.2    0.00 
 304   16:50   0.05   50.4    42    6.4   121    10.8   396.2    0.00 
 304   17:00   0.01   49.2    44    6.3   114     9.6   395.9    0.00 
 304   17:10   0.00   47.8    46    6.0   103    10.2   395.9    0.00 

Return to San Antonio, Valles Caldera graphs page.


Western Regional Climate Center,wrcc@dri.edu